Time;durP1;ratioP1;P1;durP2;ratioP2;P2;SDS_P1;SDS_P2;PMS_P1;PMS_P2;Temp;Humidity;BMP_temperature;BMP_pressure;BME280_temperature;BME280_humidity;BME280_pressure;Samples;Min_cycle;Max_cycle;Signal;HPM_P1;HPM_P2
2021/07/11 00:00:44;;;;;;;10.00;8.40;;;15.40;99.90;;;;;;5292011;28;20207;-68
2021/07/11 00:03:16;;;;;;;10.53;9.13;;;15.30;99.90;;;;;;5292793;27;20234;-67
2021/07/11 00:05:48;;;;;;;10.70;8.87;;;15.30;99.90;;;;;;5293068;27;20207;-67
2021/07/11 00:08:22;;;;;;;11.00;9.30;;;15.30;99.90;;;;;;5292882;28;20214;-64
2021/07/11 00:10:54;;;;;;;12.93;10.03;;;15.30;99.90;;;;;;5291578;28;20555;-67
2021/07/11 00:13:29;;;;;;;12.37;10.13;;;15.30;99.90;;;;;;5291999;28;20235;-65
2021/07/11 00:16:01;;;;;;;11.80;9.70;;;15.30;99.90;;;;;;5291847;28;20225;-66
2021/07/11 00:18:33;;;;;;;10.50;8.87;;;15.30;99.90;;;;;;5292496;27;20520;-67
2021/07/11 00:21:05;;;;;;;12.17;9.83;;;15.30;99.90;;;;;;5274885;28;20607;-68
2021/07/11 00:23:42;;;;;;;12.43;10.73;;;15.30;99.90;;;;;;5292615;28;20538;-65
2021/07/11 00:26:15;;;;;;;14.00;10.60;;;15.20;99.90;;;;;;5292820;27;20183;-68
2021/07/11 00:28:49;;;;;;;14.83;11.23;;;15.10;99.90;;;;;;5292097;28;20231;-66
2021/07/11 00:31:21;;;;;;;14.03;10.53;;;15.10;99.90;;;;;;5292458;28;20199;-68
2021/07/11 00:33:53;;;;;;;13.87;10.07;;;15.10;99.90;;;;;;5292204;28;20223;-63
2021/07/11 00:36:27;;;;;;;11.83;9.90;;;15.00;99.90;;;;;;5274333;28;20215;-67
2021/07/11 00:38:59;;;;;;;12.70;10.67;;;15.00;99.90;;;;;;5291042;28;20231;-64
2021/07/11 00:41:37;;;;;;;13.03;10.70;;;15.00;99.90;;;;;;5292284;28;20516;-63
2021/07/11 00:44:09;;;;;;;12.53;10.73;;;14.90;99.90;;;;;;5292385;28;20243;-66
2021/07/11 00:46:43;;;;;;;18.03;12.27;;;14.90;99.90;;;;;;5292134;28;20203;-65
2021/07/11 00:49:16;;;;;;;16.80;12.13;;;14.90;99.90;;;;;;5290664;28;20254;-66
2021/07/11 00:51:48;;;;;;;14.07;10.63;;;14.90;99.90;;;;;;5291911;28;20214;-68
2021/07/11 00:54:22;;;;;;;14.03;11.30;;;14.90;99.90;;;;;;5291583;28;20227;-64
2021/07/11 00:56:55;;;;;;;14.87;11.93;;;14.80;99.90;;;;;;5291982;28;20587;-65
2021/07/11 00:59:30;;;;;;;13.53;11.70;;;14.80;99.90;;;;;;5274149;28;20254;-67
2021/07/11 01:02:06;;;;;;;14.13;11.43;;;14.80;99.90;;;;;;5290973;28;20182;-64
2021/07/11 01:05:02;;;;;;;14.93;11.87;;;14.80;99.90;;;;;;5292027;28;20236;-63
2021/07/11 01:08:03;;;;;;;15.47;11.57;;;14.70;99.90;;;;;;5292055;28;20187;-67
2021/07/11 01:10:47;;;;;;;15.40;12.53;;;14.80;99.90;;;;;;5291002;28;20234;-65
2021/07/11 01:13:23;;;;;;;12.83;11.20;;;14.80;99.90;;;;;;5292055;28;20191;-64
2021/07/11 01:15:59;;;;;;;13.47;11.87;;;14.80;99.90;;;;;;5292027;28;20655;-64
2021/07/11 01:18:32;;;;;;;15.20;11.20;;;14.80;99.90;;;;;;5291651;28;20206;-67
2021/07/11 01:21:12;;;;;;;13.97;11.07;;;14.80;99.90;;;;;;5291797;28;20540;-66
2021/07/11 01:23:59;;;;;;;12.37;10.87;;;14.70;99.90;;;;;;5291231;28;20198;-68
2021/07/11 01:26:33;;;;;;;13.27;11.30;;;14.70;99.90;;;;;;5291948;28;20188;-66
2021/07/11 01:29:10;;;;;;;14.83;11.53;;;14.70;99.90;;;;;;5291484;28;20229;-66
2021/07/11 01:31:42;;;;;;;13.53;10.80;;;14.70;99.90;;;;;;5290344;28;20190;-63
2021/07/11 01:34:17;;;;;;;12.37;10.13;;;14.70;99.90;;;;;;5291649;28;20249;-66
2021/07/11 01:36:50;;;;;;;12.47;10.10;;;14.70;99.90;;;;;;5291867;28;20606;-66
2021/07/11 01:39:23;;;;;;;11.70;9.63;;;14.70;99.90;;;;;;5290956;28;20654;-65
2021/07/11 01:41:55;;;;;;;11.10;9.90;;;14.70;99.90;;;;;;5290999;28;20202;-64
2021/07/11 01:44:28;;;;;;;10.13;9.13;;;14.70;99.90;;;;;;5290345;28;20227;-69
2021/07/11 01:47:03;;;;;;;11.07;9.67;;;14.70;99.90;;;;;;5291334;28;20200;-64
2021/07/11 01:49:35;;;;;;;11.03;9.63;;;14.70;99.90;;;;;;5290085;28;20627;-70
2021/07/11 01:52:09;;;;;;;10.63;9.53;;;14.70;99.90;;;;;;5291656;28;20226;-66
2021/07/11 01:54:41;;;;;;;11.50;9.93;;;14.60;99.90;;;;;;5291202;28;20227;-66
2021/07/11 01:57:14;;;;;;;12.23;9.63;;;14.70;99.90;;;;;;5291257;28;20214;-62
2021/07/11 01:59:46;;;;;;;11.67;10.23;;;14.70;99.90;;;;;;5291134;28;20235;-66
2021/07/11 02:02:19;;;;;;;11.10;9.10;;;14.60;99.90;;;;;;5290390;28;20204;-63
2021/07/11 02:04:53;;;;;;;11.97;9.37;;;14.60;99.90;;;;;;5290964;28;20674;-69
2021/07/11 02:07:28;;;;;;;10.63;9.23;;;14.60;99.90;;;;;;5290341;28;20526;-66
2021/07/11 02:10:02;;;;;;;13.37;9.97;;;14.60;99.90;;;;;;5289974;28;20242;-64
2021/07/11 02:12:43;;;;;;;11.97;9.77;;;14.60;99.90;;;;;;5291144;28;20210;-69
2021/07/11 02:15:18;;;;;;;11.03;9.87;;;14.60;99.90;;;;;;5290843;28;20234;-67
2021/07/11 02:17:51;;;;;;;15.27;10.80;;;14.60;99.90;;;;;;5291421;28;20246;-64
2021/07/11 02:20:25;;;;;;;14.47;11.40;;;14.60;99.90;;;;;;5289997;28;20234;-65
2021/07/11 02:22:58;;;;;;;14.97;11.43;;;14.60;99.90;;;;;;5291452;28;20209;-70
2021/07/11 02:25:30;;;;;;;14.07;11.47;;;14.60;99.90;;;;;;5290282;28;20235;-66
2021/07/11 02:28:04;;;;;;;13.63;11.73;;;14.60;99.90;;;;;;5272978;28;20207;-64
2021/07/11 02:30:41;;;;;;;15.83;11.03;;;14.60;99.90;;;;;;5290919;28;20310;-65
2021/07/11 02:33:15;;;;;;;15.00;11.77;;;14.70;99.90;;;;;;5290970;28;20199;-63
2021/07/11 02:35:48;;;;;;;16.20;12.10;;;14.70;99.90;;;;;;5293632;28;20231;-63
2021/07/11 02:38:20;;;;;;;13.67;10.70;;;14.70;99.90;;;;;;5293503;28;20275;-65
2021/07/11 02:40:52;;;;;;;12.23;10.87;;;14.70;99.90;;;;;;5293774;28;20538;-68
2021/07/11 02:43:24;;;;;;;14.20;11.20;;;14.70;99.90;;;;;;5294822;28;20200;-68
2021/07/11 02:45:57;;;;;;;13.83;10.87;;;14.70;99.90;;;;;;5294708;28;20498;-63
2021/07/11 02:48:30;;;;;;;11.90;10.33;;;14.70;99.90;;;;;;5276722;28;20223;-66
2021/07/11 02:51:03;;;;;;;13.53;10.13;;;14.70;99.90;;;;;;5294699;28;20227;-64
2021/07/11 02:53:35;;;;;;;12.70;10.27;;;14.70;99.90;;;;;;5293953;28;20268;-66
2021/07/11 02:56:15;;;;;;;10.90;9.20;;;14.70;99.90;;;;;;5294390;28;20284;-66
2021/07/11 02:58:54;;;;;;;10.80;8.23;;;14.80;99.90;;;;;;5294041;28;20219;-66
2021/07/11 03:01:28;;;;;;;10.87;9.40;;;14.80;99.90;;;;;;5293063;28;20255;-65
2021/07/11 03:04:05;;;;;;;11.47;9.43;;;14.80;99.90;;;;;;5293297;28;20196;-66
2021/07/11 03:06:37;;;;;;;10.93;9.47;;;14.80;99.90;;;;;;5327390;27;20227;-67
2021/07/11 03:09:14;;;;;;;9.80;8.80;;;14.80;99.90;;;;;;5292784;28;20207;-65
2021/07/11 03:11:47;;;;;;;13.83;9.67;;;14.80;99.90;;;;;;5293296;28;20223;-68
2021/07/11 03:14:22;;;;;;;11.67;9.70;;;14.90;99.90;;;;;;5310444;27;20517;-66
2021/07/11 03:16:57;;;;;;;11.60;9.33;;;14.90;99.90;;;;;;5292806;28;20227;-64
2021/07/11 03:19:30;;;;;;;10.70;8.90;;;14.90;99.90;;;;;;5294012;28;20222;-65
2021/07/11 03:22:04;;;;;;;11.93;9.70;;;14.90;99.90;;;;;;5294098;28;20238;-65
2021/07/11 03:24:37;;;;;;;14.33;10.30;;;14.90;99.90;;;;;;5294223;28;20208;-63
2021/07/11 03:27:09;;;;;;;11.83;9.90;;;14.90;99.90;;;;;;5293598;28;20232;-65
2021/07/11 03:29:54;;;;;;;12.57;10.23;;;14.90;99.90;;;;;;5326988;27;20211;-65
2021/07/11 03:32:31;;;;;;;12.73;9.33;;;14.90;99.90;;;;;;5294032;28;20554;-67
2021/07/11 03:35:08;;;;;;;11.97;9.83;;;15.00;99.90;;;;;;5294248;28;20195;-65
2021/07/11 03:37:48;;;;;;;11.23;9.00;;;15.00;99.90;;;;;;5293531;28;20231;-65
2021/07/11 03:40:24;;;;;;;12.50;10.90;;;15.00;99.90;;;;;;5293117;28;20211;-62
2021/07/11 03:43:01;;;;;;;12.17;10.40;;;15.10;99.90;;;;;;5292258;28;20274;-65
2021/07/11 03:45:36;;;;;;;13.23;10.23;;;15.10;99.90;;;;;;5293675;28;20292;-66
2021/07/11 03:48:21;;;;;;;13.23;11.00;;;15.20;99.90;;;;;;5293150;28;20199;-64
2021/07/11 03:50:56;;;;;;;13.63;10.67;;;15.20;99.90;;;;;;5293074;28;20215;-66
2021/07/11 03:53:32;;;;;;;13.10;10.73;;;15.30;99.90;;;;;;5292495;28;20179;-65
2021/07/11 03:56:06;;;;;;;11.83;9.77;;;15.30;99.90;;;;;;5293561;28;20200;-66
2021/07/11 03:58:39;;;;;;;13.03;9.63;;;15.40;99.90;;;;;;5293648;28;20238;-65
2021/07/11 04:01:15;;;;;;;12.57;10.10;;;15.40;99.90;;;;;;5293179;28;20534;-67
2021/07/11 04:03:51;;;;;;;14.80;10.27;;;15.50;99.90;;;;;;5294179;28;20218;-64
2021/07/11 04:06:28;;;;;;;12.77;10.97;;;15.60;99.90;;;;;;5294812;28;20179;-65
2021/07/11 04:09:03;;;;;;;13.53;10.40;;;15.70;99.90;;;;;;5295855;28;20268;-66
2021/07/11 04:11:36;;;;;;;14.43;11.13;;;15.80;99.90;;;;;;5295305;28;20217;-65
2021/07/11 04:14:13;;;;;;;13.93;10.40;;;15.90;99.90;;;;;;5294481;28;20204;-62
2021/07/11 04:16:54;;;;;;;13.13;11.17;;;16.00;99.90;;;;;;5294609;28;20191;-66
2021/07/11 04:19:30;;;;;;;11.30;10.10;;;16.10;99.90;;;;;;5293196;28;20208;-65
2021/07/11 04:22:06;;;;;;;12.43;9.90;;;16.20;99.90;;;;;;5294292;28;20635;-65
2021/07/11 04:24:41;;;;;;;14.90;10.63;;;16.30;99.90;;;;;;5294582;28;20195;-64
2021/07/11 04:27:14;;;;;;;10.23;8.90;;;16.40;99.90;;;;;;5293915;28;20230;-65
2021/07/11 04:29:49;;;;;;;12.13;9.33;;;16.50;99.90;;;;;;5294154;28;20717;-66
2021/07/11 04:32:21;;;;;;;15.77;10.77;;;16.60;99.90;;;;;;5294297;28;20356;-67
2021/07/11 04:34:53;;;;;;;14.03;9.60;;;16.70;99.90;;;;;;5293481;28;20262;-68
2021/07/11 04:37:25;;;;;;;11.07;9.17;;;16.80;99.90;;;;;;5292200;28;20223;-64
2021/07/11 04:39:57;;;;;;;13.17;9.33;;;16.80;99.90;;;;;;5293603;28;20225;-69
2021/07/11 04:42:29;;;;;;;10.73;9.40;;;16.90;99.90;;;;;;5292020;28;20580;-66
2021/07/11 04:45:03;;;;;;;9.40;8.40;;;17.00;99.90;;;;;;5292523;28;20205;-70
2021/07/11 04:47:35;;;;;;;8.73;7.60;;;17.10;99.90;;;;;;5274956;28;20231;-62
2021/07/11 04:50:08;;;;;;;11.17;7.87;;;17.10;99.90;;;;;;5292682;28;20203;-64
2021/07/11 04:52:42;;;;;;;9.47;7.50;;;17.20;99.90;;;;;;5274578;28;20619;-65
2021/07/11 04:55:17;;;;;;;10.20;8.33;;;17.30;99.90;;;;;;5292415;28;20520;-64
2021/07/11 04:57:49;;;;;;;11.10;8.50;;;17.40;99.90;;;;;;5290996;28;20227;-68
2021/07/11 05:00:21;;;;;;;11.33;7.60;;;17.50;99.90;;;;;;5291908;28;20227;-67
2021/07/11 05:02:56;;;;;;;8.30;7.43;;;17.60;99.90;;;;;;5274012;28;20258;-67
2021/07/11 05:05:28;;;;;;;8.83;7.60;;;17.70;99.90;;;;;;5292366;28;20218;-66
2021/07/11 05:08:02;;;;;;;7.57;6.73;;;17.80;99.90;;;;;;5291984;28;20642;-66
2021/07/11 05:10:34;;;;;;;8.70;7.40;;;17.80;99.90;;;;;;5291639;28;20235;-66
2021/07/11 05:13:06;;;;;;;7.78;6.80;;;18.00;99.90;;;;;;5290857;28;20593;-64
2021/07/11 05:15:39;;;;;;;7.88;6.63;;;18.10;99.90;;;;;;5292123;28;20532;-66
2021/07/11 05:18:11;;;;;;;7.20;6.50;;;18.20;99.90;;;;;;5291808;28;20250;-68
2021/07/11 05:20:43;;;;;;;8.10;6.28;;;18.30;99.90;;;;;;5290639;28;20203;-64
2021/07/11 05:23:15;;;;;;;6.13;5.53;;;18.40;99.90;;;;;;5290662;28;20238;-67
2021/07/11 05:25:47;;;;;;;7.85;5.45;;;18.50;99.90;;;;;;5291655;28;20187;-65
2021/07/11 05:28:22;;;;;;;6.45;5.15;;;18.50;99.90;;;;;;5290399;28;20529;-63
2021/07/11 05:30:56;;;;;;;5.45;4.95;;;18.60;99.90;;;;;;5291542;28;20564;-67
2021/07/11 05:33:28;;;;;;;6.20;4.50;;;18.70;99.90;;;;;;5274049;28;20207;-64
2021/07/11 05:36:00;;;;;;;6.40;4.30;;;18.80;99.90;;;;;;5291517;28;20525;-65
2021/07/11 05:38:32;;;;;;;4.95;3.20;;;19.00;99.90;;;;;;5290196;28;20219;-67
2021/07/11 05:41:05;;;;;;;3.63;3.17;;;19.00;99.90;;;;;;5324540;27;20595;-64
2021/07/11 05:43:37;;;;;;;4.78;3.47;;;19.20;99.90;;;;;;5290302;28;20227;-66
2021/07/11 05:46:09;;;;;;;3.05;2.60;;;19.20;99.90;;;;;;5290462;28;20184;-67
2021/07/11 05:48:43;;;;;;;5.05;3.42;;;19.50;99.90;;;;;;5290188;28;20321;-68
2021/07/11 05:51:15;;;;;;;2.55;2.35;;;20.60;99.90;;;;;;5290481;28;20677;-67
2021/07/11 05:53:47;;;;;;;2.05;1.80;;;23.10;99.90;;;;;;5291267;28;20241;-64
2021/07/11 05:56:19;;;;;;;3.33;2.13;;;25.80;99.90;;;;;;5291352;28;20623;-66
2021/07/11 05:58:55;;;;;;;1.98;1.58;;;28.50;99.90;;;;;;5290103;28;20266;-65
2021/07/11 06:01:27;;;;;;;1.98;1.48;;;30.90;99.10;;;;;;5290227;28;20209;-66
2021/07/11 06:03:59;;;;;;;2.40;1.77;;;32.60;87.30;;;;;;5324125;27;20241;-66
2021/07/11 06:06:33;;;;;;;2.50;1.40;;;34.10;82.50;;;;;;5273500;28;20332;-66
2021/07/11 06:09:05;;;;;;;4.32;1.55;;;35.30;77.10;;;;;;5290095;28;20249;-65
2021/07/11 06:11:39;;;;;;;2.00;1.23;;;36.30;73.00;;;;;;5294403;28;20183;-65
2021/07/11 06:14:14;;;;;;;2.25;1.42;;;37.20;68.50;;;;;;5293855;28;20223;-64
2021/07/11 06:16:46;;;;;;;4.07;1.70;;;38.00;65.20;;;;;;5295368;28;20678;-63
2021/07/11 06:19:21;;;;;;;2.65;1.45;;;38.50;61.50;;;;;;5328055;27;20292;-64
2021/07/11 06:21:52;;;;;;;2.40;1.40;;;38.80;59.80;;;;;;5295038;28;20510;-63
2021/07/11 06:24:24;;;;;;;1.33;1.00;;;39.10;59.50;;;;;;5294886;28;20543;-66
2021/07/11 06:26:56;;;;;;;2.38;1.48;;;39.40;57.70;;;;;;5295105;28;20532;-68
2021/07/11 06:29:28;;;;;;;1.30;1.20;;;39.70;56.50;;;;;;5294602;28;20222;-64
2021/07/11 06:32:00;;;;;;;3.28;1.10;;;39.70;56.00;;;;;;5310919;27;20203;-65
2021/07/11 06:34:32;;;;;;;3.30;1.30;;;39.90;55.10;;;;;;5276703;28;20239;-64
2021/07/11 06:37:05;;;;;;;2.70;1.38;;;39.90;54.60;;;;;;5293641;28;20306;-64
2021/07/11 06:39:37;;;;;;;1.60;1.10;;;39.90;53.90;;;;;;5293533;28;20227;-65
2021/07/11 06:42:11;;;;;;;3.58;1.17;;;40.10;54.40;;;;;;5294614;28;20207;-64
2021/07/11 06:44:43;;;;;;;1.88;1.20;;;40.30;52.70;;;;;;5294559;28;20199;-66
2021/07/11 06:47:17;;;;;;;2.17;0.93;;;40.40;52.30;;;;;;5294786;28;20597;-72
2021/07/11 06:49:49;;;;;;;3.90;1.40;;;40.40;52.40;;;;;;5294479;28;20213;-68
2021/07/11 06:52:21;;;;;;;1.90;1.48;;;40.40;51.00;;;;;;5294418;28;20211;-64
2021/07/11 06:54:54;;;;;;;2.83;1.30;;;40.00;50.70;;;;;;5293052;28;20301;-67
2021/07/11 06:57:26;;;;;;;5.47;1.30;;;39.60;51.10;;;;;;5293130;28;20191;-64
2021/07/11 06:59:58;;;;;;;4.53;1.20;;;39.70;51.40;;;;;;5292987;27;20223;-66
2021/07/11 07:02:32;;;;;;;1.40;1.30;;;38.90;51.80;;;;;;5294394;28;20207;-64
2021/07/11 07:05:06;;;;;;;1.25;1.02;;;38.10;52.30;;;;;;5293016;28;20247;-68
2021/07/11 07:07:39;;;;;;;1.48;1.05;;;38.10;53.00;;;;;;5294122;28;20209;-68
2021/07/11 07:10:14;;;;;;;2.25;1.20;;;38.20;52.40;;;;;;5276149;28;20558;-64
2021/07/11 07:12:48;;;;;;;1.75;1.00;;;38.00;50.80;;;;;;5292865;28;20214;-64
2021/07/11 07:15:22;;;;;;;5.95;1.48;;;37.80;51.60;;;;;;5310512;27;20608;-72
2021/07/11 07:17:54;;;;;;;1.90;1.20;;;37.60;52.50;;;;;;5293171;28;20492;-67
2021/07/11 07:20:31;;;;;;;4.60;1.30;;;37.50;53.00;;;;;;5293102;28;20226;-65
2021/07/11 07:23:04;;;;;;;1.40;1.30;;;37.60;52.40;;;;;;5293402;28;20198;-65
2021/07/11 07:25:36;;;;;;;3.00;1.10;;;37.30;53.70;;;;;;5309490;27;20222;-67
2021/07/11 07:28:10;;;;;;;2.72;1.50;;;36.80;54.50;;;;;;5293364;28;20188;-67
2021/07/11 07:30:42;;;;;;;2.67;1.33;;;36.10;54.60;;;;;;5292487;28;20227;-69
2021/07/11 07:33:14;;;;;;;1.73;1.35;;;34.10;55.00;;;;;;5292446;28;20214;-66
2021/07/11 07:35:46;;;;;;;4.90;1.63;;;33.00;57.10;;;;;;5293062;28;20227;-65
2021/07/11 07:38:18;;;;;;;3.20;1.60;;;32.00;59.70;;;;;;5293522;28;20547;-69
2021/07/11 07:40:51;;;;;;;2.63;1.30;;;31.50;60.30;;;;;;5293053;28;20322;-65
2021/07/11 07:43:23;;;;;;;1.70;1.25;;;31.30;61.60;;;;;;5293843;28;20271;-66
2021/07/11 07:45:57;;;;;;;2.60;1.23;;;31.00;59.60;;;;;;5292234;28;20228;-69
2021/07/11 07:48:29;;;;;;;2.00;1.23;;;30.70;62.00;;;;;;5292326;28;20199;-66
2021/07/11 07:51:06;;;;;;;2.05;1.40;;;30.30;62.50;;;;;;5293433;28;20223;-62
2021/07/11 07:53:38;;;;;;;2.78;1.27;;;30.00;64.40;;;;;;5326478;27;20188;-69
2021/07/11 07:56:10;;;;;;;2.00;1.60;;;29.90;65.00;;;;;;5293511;28;20227;-67
2021/07/11 07:58:42;;;;;;;2.75;1.67;;;29.60;64.70;;;;;;5293079;28;20253;-67
2021/07/11 08:01:14;;;;;;;2.10;1.30;;;28.90;65.20;;;;;;5291824;28;20245;-66
2021/07/11 08:03:47;;;;;;;1.40;1.30;;;28.40;65.70;;;;;;5291835;28;20214;-65
2021/07/11 08:06:19;;;;;;;6.95;1.60;;;28.00;67.00;;;;;;5292091;28;20320;-67
2021/07/11 08:08:51;;;;;;;1.60;1.40;;;28.00;68.60;;;;;;5292748;28;20184;-66
2021/07/11 08:11:24;;;;;;;1.75;1.35;;;28.20;71.50;;;;;;5292738;28;20525;-69
2021/07/11 08:13:57;;;;;;;3.92;1.70;;;28.50;71.80;;;;;;5292646;28;20195;-67
2021/07/11 08:16:29;;;;;;;5.03;1.92;;;28.50;68.20;;;;;;5292549;28;20701;-66
2021/07/11 08:19:02;;;;;;;4.10;1.70;;;28.40;67.80;;;;;;5291816;28;20228;-67
2021/07/11 08:21:34;;;;;;;2.00;1.38;;;28.30;69.70;;;;;;5291543;28;20238;-67
2021/07/11 08:24:09;;;;;;;2.42;1.60;;;28.40;71.50;;;;;;5292462;28;20223;-65
2021/07/11 08:26:41;;;;;;;1.67;1.23;;;28.20;71.00;;;;;;5292468;28;20638;-65
2021/07/11 08:29:15;;;;;;;2.72;1.40;;;28.30;72.70;;;;;;5291811;28;20203;-64
2021/07/11 08:31:47;;;;;;;2.35;1.60;;;28.40;69.70;;;;;;5291885;28;20634;-68
2021/07/11 08:34:20;;;;;;;2.72;1.52;;;28.50;72.30;;;;;;5291496;28;20678;-70
2021/07/11 08:36:58;;;;;;;2.03;1.52;;;28.80;72.40;;;;;;5290985;28;20227;-63
2021/07/11 08:39:32;;;;;;;3.72;1.40;;;28.60;70.00;;;;;;5292108;28;20222;-65
2021/07/11 08:42:07;;;;;;;2.40;1.60;;;28.50;70.30;;;;;;5291630;28;20231;-68
2021/07/11 08:44:39;;;;;;;2.20;1.50;;;28.50;71.60;;;;;;5291564;28;20207;-69
2021/07/11 08:47:16;;;;;;;2.38;1.48;;;28.70;73.10;;;;;;5307700;27;20227;-71
2021/07/11 08:49:52;;;;;;;3.30;1.42;;;28.50;70.70;;;;;;5291958;28;20230;-65
2021/07/11 08:52:24;;;;;;;3.40;1.60;;;28.70;76.40;;;;;;5292143;27;20226;-62
2021/07/11 08:54:55;;;;;;;2.33;1.50;;;28.70;69.60;;;;;;5290838;28;20207;-65
2021/07/11 08:57:30;;;;;;;1.75;1.30;;;28.60;69.50;;;;;;5292084;28;20659;-69
2021/07/11 09:00:04;;;;;;;1.63;1.30;;;28.60;69.30;;;;;;5290543;28;20222;-67
2021/07/11 09:02:36;;;;;;;1.95;1.52;;;28.60;70.40;;;;;;5290692;28;20265;-69
2021/07/11 09:05:27;;;;;;;3.58;1.60;;;28.50;68.60;;;;;;5290636;28;20198;-61
2021/07/11 09:08:10;;;;;;;2.33;1.52;;;28.30;71.80;;;;;;5292290;28;20227;-65
2021/07/11 09:10:59;;;;;;;3.22;1.40;;;28.10;72.90;;;;;;5291419;28;20239;-63
2021/07/11 09:13:33;;;;;;;3.28;1.88;;;27.90;74.20;;;;;;5290518;28;20231;-67
2021/07/11 09:16:05;;;;;;;2.67;1.50;;;27.50;75.20;;;;;;5290454;28;20234;-63
2021/07/11 09:18:38;;;;;;;3.63;1.80;;;27.20;78.70;;;;;;5291652;28;20223;-66
2021/07/11 09:21:11;;;;;;;2.88;2.05;;;27.00;77.80;;;;;;5290717;28;20317;-72
2021/07/11 09:23:44;;;;;;;3.55;1.90;;;26.60;81.60;;;;;;5273487;28;20227;-64
2021/07/11 09:26:17;;;;;;;3.95;1.85;;;26.20;82.10;;;;;;5290408;28;20230;-65
2021/07/11 09:28:51;;;;;;;2.55;1.67;;;26.20;84.10;;;;;;5291284;28;20280;-64
2021/07/11 09:31:23;;;;;;;3.63;1.77;;;26.20;85.00;;;;;;5291463;28;20226;-63
2021/07/11 09:33:58;;;;;;;2.50;2.22;;;26.40;89.40;;;;;;5291440;28;20262;-64
2021/07/11 09:36:30;;;;;;;2.85;1.95;;;26.20;88.40;;;;;;5290325;28;20222;-66
2021/07/11 09:39:02;;;;;;;3.75;1.85;;;26.30;90.60;;;;;;5307379;27;20227;-65
2021/07/11 09:41:34;;;;;;;4.95;2.28;;;26.20;90.40;;;;;;5291096;28;20241;-66
2021/07/11 09:44:06;;;;;;;3.33;2.03;;;26.10;90.50;;;;;;5292071;28;20227;-66
2021/07/11 09:46:39;;;;;;;2.50;2.10;;;25.90;91.30;;;;;;5295619;28;20199;-67
2021/07/11 09:49:18;;;;;;;4.50;2.13;;;26.10;92.40;;;;;;5294569;28;20227;-66
2021/07/11 09:51:50;;;;;;;4.47;2.20;;;25.90;92.20;;;;;;5295385;28;20214;-68
2021/07/11 09:54:25;;;;;;;3.85;2.47;;;25.80;93.20;;;;;;5294420;28;20232;-65
2021/07/11 09:56:57;;;;;;;5.65;2.70;;;25.80;94.10;;;;;;5295473;28;20238;-68
2021/07/11 09:59:31;;;;;;;4.38;2.60;;;25.50;94.80;;;;;;5294332;28;20305;-63
2021/07/11 10:02:03;;;;;;;4.78;2.50;;;25.40;95.20;;;;;;5294540;28;20221;-65
2021/07/11 10:04:36;;;;;;;6.28;2.60;;;25.00;96.30;;;;;;5294548;28;20219;-65
2021/07/11 10:07:11;;;;;;;3.92;2.80;;;24.80;98.10;;;;;;5294666;28;20226;-65
2021/07/11 10:09:43;;;;;;;5.03;2.42;;;24.60;99.80;;;;;;5293704;28;20252;-66
2021/07/11 10:12:15;;;;;;;3.95;2.72;;;24.60;99.90;;;;;;5294430;28;20221;-63
2021/07/11 10:14:49;;;;;;;4.20;2.67;;;24.60;99.90;;;;;;5260564;28;20242;-65
2021/07/11 10:17:21;;;;;;;4.15;2.70;;;24.60;99.90;;;;;;5294894;28;20215;-64
2021/07/11 10:19:55;;;;;;;3.20;2.90;;;24.40;99.90;;;;;;5294447;28;20227;-64
2021/07/11 10:22:28;;;;;;;4.20;2.88;;;24.40;99.90;;;;;;5294250;28;20204;-65
2021/07/11 10:25:13;;;;;;;3.53;2.80;;;24.20;99.90;;;;;;5294056;28;20227;-66
2021/07/11 10:27:48;;;;;;;5.95;3.42;;;24.20;99.90;;;;;;5293929;28;20194;-63
2021/07/11 10:30:29;;;;;;;5.45;3.25;;;24.00;99.90;;;;;;5294067;28;20241;-63
2021/07/11 10:33:19;;;;;;;4.90;2.92;;;23.90;99.90;;;;;;5293828;28;20210;-65
2021/07/11 10:36:03;;;;;;;3.30;2.83;;;23.90;99.90;;;;;;5292653;28;20564;-62
2021/07/11 10:38:48;;;;;;;5.05;3.60;;;24.00;99.90;;;;;;5292967;28;20219;-60
2021/07/11 10:41:29;;;;;;;8.18;3.60;;;24.20;99.90;;;;;;5292723;28;20234;-62
2021/07/11 10:44:07;;;;;;;4.85;3.20;;;24.50;99.90;;;;;;5293685;28;20559;-65
2021/07/11 10:46:47;;;;;;;6.88;2.67;;;24.60;99.90;;;;;;5292502;28;20283;-65
2021/07/11 10:49:22;;;;;;;8.05;3.47;;;24.70;99.90;;;;;;5292689;28;20183;-65
2021/07/11 10:51:57;;;;;;;3.58;2.83;;;24.80;99.90;;;;;;5293385;28;20207;-66
2021/07/11 10:54:35;;;;;;;3.95;2.80;;;24.80;99.90;;;;;;5292283;28;20226;-66
2021/07/11 10:57:12;;;;;;;4.30;2.90;;;24.70;99.90;;;;;;5292001;28;20215;-64
2021/07/11 10:59:47;;;;;;;6.03;2.90;;;24.60;99.90;;;;;;5291867;28;20227;-64
2021/07/11 11:02:24;;;;;;;3.38;2.63;;;24.40;99.90;;;;;;5292103;28;20211;-63
2021/07/11 11:05:12;;;;;;;4.05;2.70;;;24.40;99.90;;;;;;5292817;28;20310;-68
2021/07/11 11:07:57;;;;;;;3.50;3.20;;;24.40;99.90;;;;;;5292844;28;20606;-65
2021/07/11 11:10:37;;;;;;;7.22;3.00;;;24.40;99.90;;;;;;5293276;28;20231;-64
2021/07/11 11:13:16;;;;;;;4.72;2.50;;;24.30;99.90;;;;;;5292910;28;20223;-67
2021/07/11 11:15:54;;;;;;;3.83;2.90;;;24.00;99.90;;;;;;5292851;28;20572;-66
2021/07/11 11:18:35;;;;;;;3.50;2.70;;;24.00;99.90;;;;;;5293770;28;20277;-66
2021/07/11 11:21:12;;;;;;;3.42;2.72;;;24.00;99.90;;;;;;5293469;28;20249;-63
2021/07/11 11:23:54;;;;;;;2.97;2.63;;;23.80;99.90;;;;;;5293450;28;20573;-64
2021/07/11 11:26:28;;;;;;;5.40;2.80;;;23.70;99.90;;;;;;5293422;28;20234;-65
2021/07/11 11:29:02;;;;;;;5.38;2.80;;;23.80;99.90;;;;;;5293327;27;20202;-66
2021/07/11 11:31:36;;;;;;;3.95;2.53;;;23.90;99.90;;;;;;5292670;28;20231;-66
2021/07/11 11:34:12;;;;;;;4.88;2.80;;;23.90;99.90;;;;;;5293265;28;20650;-64
2021/07/11 11:36:48;;;;;;;3.55;2.50;;;24.00;99.90;;;;;;5293721;28;20531;-64
2021/07/11 11:39:22;;;;;;;3.53;2.65;;;24.00;99.90;;;;;;5293700;28;20210;-66
2021/07/11 11:41:57;;;;;;;4.13;2.67;;;24.10;99.90;;;;;;5293413;28;20246;-66
2021/07/11 11:44:29;;;;;;;4.20;2.65;;;24.10;99.90;;;;;;5293871;28;20207;-65
2021/07/11 11:47:03;;;;;;;4.28;2.38;;;24.10;99.90;;;;;;5292767;28;20631;-65
2021/07/11 11:49:36;;;;;;;3.30;2.35;;;24.10;99.90;;;;;;5292918;28;20213;-65
2021/07/11 11:52:08;;;;;;;2.80;2.05;;;23.90;99.90;;;;;;5291295;28;20249;-65
2021/07/11 11:54:41;;;;;;;3.97;2.03;;;23.90;99.90;;;;;;5292634;28;20283;-65
2021/07/11 11:57:13;;;;;;;5.55;2.45;;;23.90;99.90;;;;;;5275364;28;20561;-64
2021/07/11 11:59:48;;;;;;;4.90;2.40;;;23.90;99.90;;;;;;5292299;28;20828;-63
2021/07/11 12:02:22;;;;;;;3.10;2.20;;;23.90;99.90;;;;;;5292235;27;20258;-64
2021/07/11 12:04:54;;;;;;;4.30;2.10;;;23.90;99.90;;;;;;5292231;28;20248;-63
2021/07/11 12:07:26;;;;;;;4.35;2.60;;;24.00;99.90;;;;;;5291536;28;20231;-63
2021/07/11 12:09:58;;;;;;;2.75;2.17;;;24.10;99.90;;;;;;5291880;28;20231;-65
2021/07/11 12:12:30;;;;;;;5.68;2.28;;;24.10;99.90;;;;;;5291827;28;20274;-65
2021/07/11 12:15:03;;;;;;;7.53;2.80;;;24.20;99.90;;;;;;5271085;28;20214;-66
2021/07/11 12:17:36;;;;;;;3.15;2.10;;;24.30;99.90;;;;;;5275569;28;20639;-62
2021/07/11 12:20:09;;;;;;;4.07;2.20;;;24.40;99.90;;;;;;5273821;28;20226;-63
2021/07/11 12:22:42;;;;;;;4.25;2.00;;;24.40;99.90;;;;;;5291288;28;20238;-67
2021/07/11 12:25:24;;;;;;;4.97;2.20;;;24.40;99.90;;;;;;5291006;28;20210;-68
2021/07/11 12:28:01;;;;;;;5.28;2.08;;;24.20;99.90;;;;;;5290692;28;20537;-66
2021/07/11 12:30:33;;;;;;;4.03;2.22;;;24.10;99.90;;;;;;5290470;28;20484;-65
2021/07/11 12:33:07;;;;;;;3.78;2.05;;;24.20;99.90;;;;;;5290807;28;20227;-66
2021/07/11 12:35:47;;;;;;;6.18;2.25;;;24.20;99.90;;;;;;5289964;28;20207;-64
2021/07/11 12:38:39;;;;;;;3.75;2.30;;;24.10;99.90;;;;;;5290249;28;20230;-68
2021/07/11 12:41:16;;;;;;;2.63;1.88;;;24.20;99.90;;;;;;5281051;28;20276;-64
2021/07/11 12:43:53;;;;;;;2.38;1.73;;;24.00;99.70;;;;;;5290936;28;20714;-64
2021/07/11 12:46:26;;;;;;;4.80;1.80;;;24.00;99.90;;;;;;5290084;28;20549;-65
2021/07/11 12:49:08;;;;;;;2.72;2.25;;;24.00;99.90;;;;;;5290037;28;20290;-66
2021/07/11 12:51:50;;;;;;;3.92;1.88;;;24.00;99.90;;;;;;5290326;28;20194;-63
2021/07/11 12:54:24;;;;;;;2.97;1.50;;;24.00;99.90;;;;;;5291429;28;20207;-65
2021/07/11 12:57:03;;;;;;;4.05;1.75;;;24.10;98.80;;;;;;5291630;28;20527;-65
2021/07/11 12:59:43;;;;;;;3.33;2.17;;;24.10;97.90;;;;;;5290641;28;20223;-64
2021/07/11 13:02:18;;;;;;;4.05;1.85;;;24.00;99.10;;;;;;5289606;28;20226;-65
2021/07/11 13:05:01;;;;;;;3.53;1.80;;;23.80;98.50;;;;;;5291615;27;20202;-69
2021/07/11 13:07:33;;;;;;;3.47;1.60;;;23.80;98.50;;;;;;5290267;28;20618;-65
2021/07/11 13:10:07;;;;;;;2.95;2.08;;;23.80;97.80;;;;;;5291257;28;20273;-65
2021/07/11 13:12:44;;;;;;;4.45;1.98;;;23.90;98.70;;;;;;5290502;28;20211;-66
2021/07/11 13:15:18;;;;;;;4.15;2.00;;;23.90;98.60;;;;;;5290833;28;20180;-69
2021/07/11 13:17:50;;;;;;;4.35;2.00;;;23.90;98.90;;;;;;5290021;28;20207;-64